sensor_id;sensor_type;location;lat;lon;timestamp;pressure;altitude;pressure_sealevel;temperature;humidity
64551;BME280;74341;44.510;-123.270;2024-03-25T00:00:13;100469.00;;;15.20;81.99
64551;BME280;74341;44.510;-123.270;2024-03-25T00:02:41;100469.22;;;15.19;81.63
64551;BME280;74341;44.510;-123.270;2024-03-25T00:05:08;100473.25;;;15.23;81.75
64551;BME280;74341;44.510;-123.270;2024-03-25T00:07:38;100469.00;;;15.34;80.79
64551;BME280;74341;44.510;-123.270;2024-03-25T00:10:05;100472.59;;;15.28;79.37
64551;BME280;74341;44.510;-123.270;2024-03-25T00:12:35;100476.22;;;15.28;78.99
64551;BME280;74341;44.510;-123.270;2024-03-25T00:15:01;100475.16;;;15.23;80.01
64551;BME280;74341;44.510;-123.270;2024-03-25T00:17:27;100473.44;;;15.08;80.25
64551;BME280;74341;44.510;-123.270;2024-03-25T00:19:53;100478.75;;;14.90;79.98
64551;BME280;74341;44.510;-123.270;2024-03-25T00:22:21;100481.69;;;14.88;79.93
64551;BME280;74341;44.510;-123.270;2024-03-25T00:24:48;100483.59;;;14.88;78.83
64551;BME280;74341;44.510;-123.270;2024-03-25T00:27:14;100478.50;;;14.78;74.98
64551;BME280;74341;44.510;-123.270;2024-03-25T00:29:41;100485.47;;;14.67;78.75
64551;BME280;74341;44.510;-123.270;2024-03-25T00:32:07;100479.31;;;14.58;73.29
64551;BME280;74341;44.510;-123.270;2024-03-25T00:34:34;100478.66;;;14.56;71.61
64551;BME280;74341;44.510;-123.270;2024-03-25T00:37:00;100490.72;;;14.55;74.22
64551;BME280;74341;44.510;-123.270;2024-03-25T00:39:27;100484.41;;;14.61;77.69
64551;BME280;74341;44.510;-123.270;2024-03-25T00:41:53;100496.28;;;14.69;72.90
64551;BME280;74341;44.510;-123.270;2024-03-25T00:44:19;100501.16;;;14.73;78.34
64551;BME280;74341;44.510;-123.270;2024-03-25T00:46:46;100502.19;;;14.72;76.29
64551;BME280;74341;44.510;-123.270;2024-03-25T00:49:12;100510.19;;;14.54;78.56
64551;BME280;74341;44.510;-123.270;2024-03-25T00:51:38;100507.91;;;14.09;77.96
64551;BME280;74341;44.510;-123.270;2024-03-25T00:54:04;100518.69;;;13.76;79.75
64551;BME280;74341;44.510;-123.270;2024-03-25T00:56:31;100512.38;;;13.47;80.07
64551;BME280;74341;44.510;-123.270;2024-03-25T00:58:57;100519.13;;;13.23;81.13
64551;BME280;74341;44.510;-123.270;2024-03-25T01:01:29;100526.13;;;13.04;81.44
64551;BME280;74341;44.510;-123.270;2024-03-25T01:03:56;100529.59;;;12.91;81.94
64551;BME280;74341;44.510;-123.270;2024-03-25T01:06:22;100528.22;;;12.80;82.17
64551;BME280;74341;44.510;-123.270;2024-03-25T01:08:50;100516.44;;;12.65;81.06
64551;BME280;74341;44.510;-123.270;2024-03-25T01:11:16;100530.41;;;12.48;82.27
64551;BME280;74341;44.510;-123.270;2024-03-25T01:13:42;100526.41;;;12.29;82.00
64551;BME280;74341;44.510;-123.270;2024-03-25T01:16:09;100524.72;;;12.13;82.57
64551;BME280;74341;44.510;-123.270;2024-03-25T01:18:36;100529.72;;;11.95;82.99
64551;BME280;74341;44.510;-123.270;2024-03-25T01:21:03;100522.41;;;11.72;82.25
64551;BME280;74341;44.510;-123.270;2024-03-25T01:23:30;100519.50;;;11.59;83.33
64551;BME280;74341;44.510;-123.270;2024-03-25T01:25:56;100528.72;;;11.43;83.18
64551;BME280;74341;44.510;-123.270;2024-03-25T01:28:23;100531.81;;;11.25;83.38
64551;BME280;74341;44.510;-123.270;2024-03-25T01:30:49;100532.53;;;11.19;84.59
64551;BME280;74341;44.510;-123.270;2024-03-25T01:33:15;100532.00;;;11.00;84.51
64551;BME280;74341;44.510;-123.270;2024-03-25T01:35:42;100528.31;;;10.93;84.76
64551;BME280;74341;44.510;-123.270;2024-03-25T01:38:08;100530.59;;;10.81;84.03
64551;BME280;74341;44.510;-123.270;2024-03-25T01:40:35;100526.91;;;10.74;85.13
64551;BME280;74341;44.510;-123.270;2024-03-25T01:43:02;100522.53;;;10.65;85.16
64551;BME280;74341;44.510;-123.270;2024-03-25T01:45:30;100527.03;;;10.58;85.59
64551;BME280;74341;44.510;-123.270;2024-03-25T01:48:03;100526.38;;;10.48;85.32
64551;BME280;74341;44.510;-123.270;2024-03-25T01:50:34;100533.59;;;10.40;85.37
64551;BME280;74341;44.510;-123.270;2024-03-25T01:53:02;100529.22;;;10.31;85.42
64551;BME280;74341;44.510;-123.270;2024-03-25T01:55:29;100537.25;;;10.24;85.14
64551;BME280;74341;44.510;-123.270;2024-03-25T01:57:56;100536.44;;;10.16;85.07
64551;BME280;74341;44.510;-123.270;2024-03-25T02:00:24;100533.06;;;10.05;85.36
64551;BME280;74341;44.510;-123.270;2024-03-25T02:02:54;100550.34;;;9.98;85.67
64551;BME280;74341;44.510;-123.270;2024-03-25T02:05:21;100549.16;;;9.92;85.25
64551;BME280;74341;44.510;-123.270;2024-03-25T02:07:48;100552.94;;;9.83;85.24
64551;BME280;74341;44.510;-123.270;2024-03-25T02:10:16;100552.97;;;9.75;85.74
64551;BME280;74341;44.510;-123.270;2024-03-25T02:12:45;100560.16;;;9.67;85.96
64551;BME280;74341;44.510;-123.270;2024-03-25T02:15:12;100557.78;;;9.56;86.33
64551;BME280;74341;44.510;-123.270;2024-03-25T02:17:39;100556.78;;;9.49;86.21
64551;BME280;74341;44.510;-123.270;2024-03-25T02:20:06;100552.34;;;9.40;86.77
64551;BME280;74341;44.510;-123.270;2024-03-25T02:22:36;100557.16;;;9.29;86.84
64551;BME280;74341;44.510;-123.270;2024-03-25T02:25:05;100551.69;;;9.21;87.11
64551;BME280;74341;44.510;-123.270;2024-03-25T02:27:33;100558.84;;;9.14;86.93
64551;BME280;74341;44.510;-123.270;2024-03-25T02:30:13;100551.84;;;9.03;87.04
64551;BME280;74341;44.510;-123.270;2024-03-25T02:32:40;100553.72;;;8.94;87.58
64551;BME280;74341;44.510;-123.270;2024-03-25T02:35:13;100557.31;;;8.87;87.27
64551;BME280;74341;44.510;-123.270;2024-03-25T02:37:41;100559.00;;;8.80;87.45
64551;BME280;74341;44.510;-123.270;2024-03-25T02:40:09;100563.22;;;8.74;87.91
64551;BME280;74341;44.510;-123.270;2024-03-25T02:42:36;100568.53;;;8.67;88.38
64551;BME280;74341;44.510;-123.270;2024-03-25T02:45:03;100564.75;;;8.60;88.46
64551;BME280;74341;44.510;-123.270;2024-03-25T02:47:29;100572.56;;;8.55;88.20
64551;BME280;74341;44.510;-123.270;2024-03-25T02:49:55;100581.22;;;8.50;88.58
64551;BME280;74341;44.510;-123.270;2024-03-25T02:52:22;100590.94;;;8.45;89.04
64551;BME280;74341;44.510;-123.270;2024-03-25T02:54:48;100583.41;;;8.38;89.35
64551;BME280;74341;44.510;-123.270;2024-03-25T02:57:14;100583.03;;;8.33;89.02
64551;BME280;74341;44.510;-123.270;2024-03-25T02:59:40;100588.28;;;8.27;89.71
64551;BME280;74341;44.510;-123.270;2024-03-25T03:02:07;100586.03;;;8.22;89.34
64551;BME280;74341;44.510;-123.270;2024-03-25T03:04:33;100600.00;;;8.19;89.68
64551;BME280;74341;44.510;-123.270;2024-03-25T03:06:59;100592.31;;;8.14;89.78
64551;BME280;74341;44.510;-123.270;2024-03-25T03:09:25;100589.06;;;8.11;89.39
64551;BME280;74341;44.510;-123.270;2024-03-25T03:11:52;100585.13;;;8.05;89.68
64551;BME280;74341;44.510;-123.270;2024-03-25T03:14:18;100582.88;;;8.00;89.99
64551;BME280;74341;44.510;-123.270;2024-03-25T03:16:44;100586.94;;;7.96;90.27
64551;BME280;74341;44.510;-123.270;2024-03-25T03:19:10;100585.75;;;7.91;90.86
64551;BME280;74341;44.510;-123.270;2024-03-25T03:21:36;100589.78;;;7.87;90.33
64551;BME280;74341;44.510;-123.270;2024-03-25T03:24:04;100595.56;;;7.84;91.00
64551;BME280;74341;44.510;-123.270;2024-03-25T03:26:31;100596.72;;;7.81;90.57
64551;BME280;74341;44.510;-123.270;2024-03-25T03:28:57;100597.91;;;7.78;92.09
64551;BME280;74341;44.510;-123.270;2024-03-25T03:31:25;100607.38;;;7.74;91.89
64551;BME280;74341;44.510;-123.270;2024-03-25T03:33:52;100606.00;;;7.70;91.44
64551;BME280;74341;44.510;-123.270;2024-03-25T03:36:20;100612.78;;;7.66;91.91
64551;BME280;74341;44.510;-123.270;2024-03-25T03:38:46;100610.53;;;7.61;92.52
64551;BME280;74341;44.510;-123.270;2024-03-25T03:41:13;100614.44;;;7.59;91.26
64551;BME280;74341;44.510;-123.270;2024-03-25T03:43:39;100614.91;;;7.54;91.81
64551;BME280;74341;44.510;-123.270;2024-03-25T03:46:05;100615.22;;;7.51;92.32
64551;BME280;74341;44.510;-123.270;2024-03-25T03:48:32;100616.25;;;7.50;92.05
64551;BME280;74341;44.510;-123.270;2024-03-25T03:50:58;100615.41;;;7.50;91.38
64551;BME280;74341;44.510;-123.270;2024-03-25T03:53:24;100615.72;;;7.47;93.26
64551;BME280;74341;44.510;-123.270;2024-03-25T03:55:58;100611.44;;;7.44;92.28
64551;BME280;74341;44.510;-123.270;2024-03-25T03:58:25;100619.75;;;7.42;91.58
64551;BME280;74341;44.510;-123.270;2024-03-25T04:00:51;100615.63;;;7.38;91.90
64551;BME280;74341;44.510;-123.270;2024-03-25T04:03:21;100619.38;;;7.37;92.11
64551;BME280;74341;44.510;-123.270;2024-03-25T04:05:48;100609.81;;;7.33;93.14
64551;BME280;74341;44.510;-123.270;2024-03-25T04:08:14;100602.84;;;7.31;92.17
64551;BME280;74341;44.510;-123.270;2024-03-25T04:10:40;100604.72;;;7.30;91.74
64551;BME280;74341;44.510;-123.270;2024-03-25T04:13:07;100599.28;;;7.30;91.97
64551;BME280;74341;44.510;-123.270;2024-03-25T04:15:34;100608.44;;;7.29;92.28
64551;BME280;74341;44.510;-123.270;2024-03-25T04:18:00;100610.47;;;7.27;91.97
64551;BME280;74341;44.510;-123.270;2024-03-25T04:20:27;100613.34;;;7.26;92.81
64551;BME280;74341;44.510;-123.270;2024-03-25T04:22:56;100611.06;;;7.21;92.30
64551;BME280;74341;44.510;-123.270;2024-03-25T04:25:25;100610.53;;;7.17;92.63
64551;BME280;74341;44.510;-123.270;2024-03-25T04:27:51;100601.28;;;7.10;92.57
64551;BME280;74341;44.510;-123.270;2024-03-25T04:30:17;100606.53;;;7.03;92.23
64551;BME280;74341;44.510;-123.270;2024-03-25T04:32:44;100605.25;;;6.98;92.48
64551;BME280;74341;44.510;-123.270;2024-03-25T04:35:10;100605.03;;;6.91;92.88
64551;BME280;74341;44.510;-123.270;2024-03-25T04:37:37;100599.38;;;6.84;93.31
64551;BME280;74341;44.510;-123.270;2024-03-25T04:40:06;100589.97;;;6.79;93.19
64551;BME280;74341;44.510;-123.270;2024-03-25T04:42:34;100594.13;;;6.73;94.04
64551;BME280;74341;44.510;-123.270;2024-03-25T04:45:00;100592.19;;;6.65;93.75
64551;BME280;74341;44.510;-123.270;2024-03-25T04:47:26;100601.69;;;6.61;93.60
64551;BME280;74341;44.510;-123.270;2024-03-25T04:49:52;100603.00;;;6.57;93.73
64551;BME280;74341;44.510;-123.270;2024-03-25T04:52:19;100609.88;;;6.52;93.48
64551;BME280;74341;44.510;-123.270;2024-03-25T04:54:49;100609.31;;;6.48;93.26
64551;BME280;74341;44.510;-123.270;2024-03-25T04:57:15;100618.09;;;6.42;92.88
64551;BME280;74341;44.510;-123.270;2024-03-25T04:59:43;100620.41;;;6.37;93.69
64551;BME280;74341;44.510;-123.270;2024-03-25T05:02:10;100628.69;;;6.35;93.17
64551;BME280;74341;44.510;-123.270;2024-03-25T05:04:36;100636.28;;;6.32;93.38
64551;BME280;74341;44.510;-123.270;2024-03-25T05:07:02;100634.00;;;6.27;93.18
64551;BME280;74341;44.510;-123.270;2024-03-25T05:09:29;100639.91;;;6.22;93.45
64551;BME280;74341;44.510;-123.270;2024-03-25T05:11:55;100642.06;;;6.19;93.65
64551;BME280;74341;44.510;-123.270;2024-03-25T05:14:21;100646.94;;;6.15;93.64
64551;BME280;74341;44.510;-123.270;2024-03-25T05:16:47;100650.78;;;6.13;94.98
64551;BME280;74341;44.510;-123.270;2024-03-25T05:19:15;100661.09;;;6.09;93.89
64551;BME280;74341;44.510;-123.270;2024-03-25T05:21:41;100665.81;;;6.07;94.65
64551;BME280;74341;44.510;-123.270;2024-03-25T05:24:07;100664.25;;;6.04;94.39
64551;BME280;74341;44.510;-123.270;2024-03-25T05:26:33;100667.28;;;6.01;94.22
64551;BME280;74341;44.510;-123.270;2024-03-25T05:29:00;100672.28;;;5.96;94.27
64551;BME280;74341;44.510;-123.270;2024-03-25T05:31:26;100659.28;;;5.90;94.37
64551;BME280;74341;44.510;-123.270;2024-03-25T05:33:53;100664.44;;;5.83;96.18
64551;BME280;74341;44.510;-123.270;2024-03-25T05:36:19;100670.13;;;5.80;94.91
64551;BME280;74341;44.510;-123.270;2024-03-25T05:38:46;100664.16;;;5.77;94.83
64551;BME280;74341;44.510;-123.270;2024-03-25T05:41:12;100662.47;;;5.76;94.83
64551;BME280;74341;44.510;-123.270;2024-03-25T05:43:39;100657.31;;;5.72;94.92
64551;BME280;74341;44.510;-123.270;2024-03-25T05:46:05;100660.03;;;5.72;95.29
64551;BME280;74341;44.510;-123.270;2024-03-25T05:48:32;100665.59;;;5.71;95.14
64551;BME280;74341;44.510;-123.270;2024-03-25T05:51:05;100666.31;;;5.73;95.45
64551;BME280;74341;44.510;-123.270;2024-03-25T05:53:35;100674.00;;;5.78;95.64
64551;BME280;74341;44.510;-123.270;2024-03-25T05:56:03;100670.97;;;5.81;95.38
64551;BME280;74341;44.510;-123.270;2024-03-25T05:58:30;100671.88;;;5.81;98.92
64551;BME280;74341;44.510;-123.270;2024-03-25T06:00:56;100671.72;;;5.83;96.55
64551;BME280;74341;44.510;-123.270;2024-03-25T06:03:22;100664.28;;;5.85;95.94
64551;BME280;74341;44.510;-123.270;2024-03-25T06:05:49;100657.84;;;5.86;95.92
64551;BME280;74341;44.510;-123.270;2024-03-25T06:08:15;100659.56;;;5.87;95.79
64551;BME280;74341;44.510;-123.270;2024-03-25T06:10:46;100674.81;;;5.88;95.93
64551;BME280;74341;44.510;-123.270;2024-03-25T06:13:12;100661.44;;;5.86;96.04
64551;BME280;74341;44.510;-123.270;2024-03-25T06:15:40;100669.72;;;5.85;96.29
64551;BME280;74341;44.510;-123.270;2024-03-25T06:18:06;100672.72;;;5.82;96.17
64551;BME280;74341;44.510;-123.270;2024-03-25T06:20:32;100665.72;;;5.79;96.98
64551;BME280;74341;44.510;-123.270;2024-03-25T06:22:58;100665.00;;;5.77;96.98
64551;BME280;74341;44.510;-123.270;2024-03-25T06:25:24;100666.16;;;5.75;96.97
64551;BME280;74341;44.510;-123.270;2024-03-25T06:27:51;100674.72;;;5.70;96.78
64551;BME280;74341;44.510;-123.270;2024-03-25T06:30:17;100683.88;;;5.69;97.06
64551;BME280;74341;44.510;-123.270;2024-03-25T06:33:01;100686.59;;;5.69;97.87
64551;BME280;74341;44.510;-123.270;2024-03-25T06:35:46;100688.00;;;5.73;98.19
64551;BME280;74341;44.510;-123.270;2024-03-25T06:38:12;100690.28;;;5.78;97.67
64551;BME280;74341;44.510;-123.270;2024-03-25T06:40:38;100686.41;;;5.80;97.42
64551;BME280;74341;44.510;-123.270;2024-03-25T06:43:05;100697.00;;;5.83;97.42
64551;BME280;74341;44.510;-123.270;2024-03-25T06:45:31;100691.28;;;5.86;97.49
64551;BME280;74341;44.510;-123.270;2024-03-25T06:47:58;100694.69;;;5.88;98.18
64551;BME280;74341;44.510;-123.270;2024-03-25T06:50:24;100704.25;;;5.93;97.97
64551;BME280;74341;44.510;-123.270;2024-03-25T06:52:51;100700.25;;;5.97;98.00
64551;BME280;74341;44.510;-123.270;2024-03-25T06:55:17;100708.13;;;6.00;98.00
64551;BME280;74341;44.510;-123.270;2024-03-25T06:57:50;100707.00;;;6.02;96.92
64551;BME280;74341;44.510;-123.270;2024-03-25T07:00:16;100717.53;;;6.05;96.74
64551;BME280;74341;44.510;-123.270;2024-03-25T07:02:43;100719.81;;;6.10;96.85
64551;BME280;74341;44.510;-123.270;2024-03-25T07:05:09;100727.66;;;6.13;96.72
64551;BME280;74341;44.510;-123.270;2024-03-25T07:07:35;100727.34;;;6.16;96.56
64551;BME280;74341;44.510;-123.270;2024-03-25T07:10:01;100736.06;;;6.20;96.34
64551;BME280;74341;44.510;-123.270;2024-03-25T07:12:28;100742.06;;;6.23;95.85
64551;BME280;74341;44.510;-123.270;2024-03-25T07:14:54;100738.19;;;6.26;95.82
64551;BME280;74341;44.510;-123.270;2024-03-25T07:17:20;100736.19;;;6.28;96.53
64551;BME280;74341;44.510;-123.270;2024-03-25T07:19:49;100734.19;;;6.30;96.20
64551;BME280;74341;44.510;-123.270;2024-03-25T07:22:15;100731.31;;;6.32;96.13
64551;BME280;74341;44.510;-123.270;2024-03-25T07:24:43;100726.59;;;6.34;96.36
64551;BME280;74341;44.510;-123.270;2024-03-25T07:27:09;100732.72;;;6.36;96.12
64551;BME280;74341;44.510;-123.270;2024-03-25T07:29:35;100732.56;;;6.37;96.07
64551;BME280;74341;44.510;-123.270;2024-03-25T07:32:01;100729.72;;;6.39;96.11
64551;BME280;74341;44.510;-123.270;2024-03-25T07:34:28;100736.88;;;6.40;96.04
64551;BME280;74341;44.510;-123.270;2024-03-25T07:36:54;100741.44;;;6.39;96.26
64551;BME280;74341;44.510;-123.270;2024-03-25T07:39:20;100737.88;;;6.39;96.85
64551;BME280;74341;44.510;-123.270;2024-03-25T07:41:49;100729.88;;;6.37;96.73
64551;BME280;74341;44.510;-123.270;2024-03-25T07:44:16;100739.88;;;6.37;96.59
64551;BME280;74341;44.510;-123.270;2024-03-25T07:46:42;100734.03;;;6.32;96.33
64551;BME280;74341;44.510;-123.270;2024-03-25T07:49:08;100737.03;;;6.28;95.98
64551;BME280;74341;44.510;-123.270;2024-03-25T07:51:34;100740.91;;;6.26;95.60
64551;BME280;74341;44.510;-123.270;2024-03-25T07:54:05;100745.78;;;6.22;95.81
64551;BME280;74341;44.510;-123.270;2024-03-25T07:56:31;100747.78;;;6.20;96.27
64551;BME280;74341;44.510;-123.270;2024-03-25T07:59:03;100754.22;;;6.19;96.67
64551;BME280;74341;44.510;-123.270;2024-03-25T08:01:29;100754.22;;;6.19;96.93
64551;BME280;74341;44.510;-123.270;2024-03-25T08:03:56;100758.66;;;6.20;96.50
64551;BME280;74341;44.510;-123.270;2024-03-25T08:06:22;100750.66;;;6.19;96.82
64551;BME280;74341;44.510;-123.270;2024-03-25T08:08:48;100745.09;;;6.20;96.56
64551;BME280;74341;44.510;-123.270;2024-03-25T08:11:14;100752.53;;;6.18;96.55
64551;BME280;74341;44.510;-123.270;2024-03-25T08:13:41;100742.78;;;6.16;97.13
64551;BME280;74341;44.510;-123.270;2024-03-25T08:16:07;100746.53;;;6.15;96.84
64551;BME280;74341;44.510;-123.270;2024-03-25T08:18:33;100753.09;;;6.12;96.98
64551;BME280;74341;44.510;-123.270;2024-03-25T08:21:00;100747.94;;;6.09;96.69
64551;BME280;74341;44.510;-123.270;2024-03-25T08:23:26;100742.84;;;6.06;96.59
64551;BME280;74341;44.510;-123.270;2024-03-25T08:25:52;100739.38;;;6.04;96.90
64551;BME280;74341;44.510;-123.270;2024-03-25T08:28:18;100748.53;;;6.03;97.09
64551;BME280;74341;44.510;-123.270;2024-03-25T08:30:44;100743.25;;;6.01;96.73
64551;BME280;74341;44.510;-123.270;2024-03-25T08:33:11;100735.13;;;6.01;96.41
64551;BME280;74341;44.510;-123.270;2024-03-25T08:35:38;100721.69;;;6.00;96.64
64551;BME280;74341;44.510;-123.270;2024-03-25T08:38:04;100731.56;;;6.01;96.77
64551;BME280;74341;44.510;-123.270;2024-03-25T08:40:30;100717.97;;;6.01;96.93
64551;BME280;74341;44.510;-123.270;2024-03-25T08:42:56;100712.56;;;6.01;97.17
64551;BME280;74341;44.510;-123.270;2024-03-25T08:45:23;100712.41;;;6.02;97.30
64551;BME280;74341;44.510;-123.270;2024-03-25T08:47:49;100715.28;;;6.01;96.71
64551;BME280;74341;44.510;-123.270;2024-03-25T08:50:16;100709.13;;;5.99;96.58
64551;BME280;74341;44.510;-123.270;2024-03-25T08:52:42;100706.44;;;5.99;96.59
64551;BME280;74341;44.510;-123.270;2024-03-25T08:55:08;100710.13;;;5.98;95.47
64551;BME280;74341;44.510;-123.270;2024-03-25T08:57:35;100705.97;;;5.94;95.91
64551;BME280;74341;44.510;-123.270;2024-03-25T09:00:01;100715.25;;;5.91;96.51
64551;BME280;74341;44.510;-123.270;2024-03-25T09:02:29;100718.09;;;5.89;96.45
64551;BME280;74341;44.510;-123.270;2024-03-25T09:04:56;100722.81;;;5.87;97.47
64551;BME280;74341;44.510;-123.270;2024-03-25T09:07:24;100733.66;;;5.87;97.67
64551;BME280;74341;44.510;-123.270;2024-03-25T09:09:50;100729.09;;;5.88;98.12
64551;BME280;74341;44.510;-123.270;2024-03-25T09:12:35;100730.13;;;5.87;97.76
64551;BME280;74341;44.510;-123.270;2024-03-25T09:15:01;100740.13;;;5.86;97.63
64551;BME280;74341;44.510;-123.270;2024-03-25T09:17:28;100737.22;;;5.88;98.00
64551;BME280;74341;44.510;-123.270;2024-03-25T09:19:54;100747.94;;;5.89;97.78
64551;BME280;74341;44.510;-123.270;2024-03-25T09:22:20;100741.38;;;5.92;96.69
64551;BME280;74341;44.510;-123.270;2024-03-25T09:24:47;100739.28;;;5.96;96.17
64551;BME280;74341;44.510;-123.270;2024-03-25T09:27:14;100736.97;;;6.01;97.54
64551;BME280;74341;44.510;-123.270;2024-03-25T09:29:42;100727.81;;;6.02;96.44
64551;BME280;74341;44.510;-123.270;2024-03-25T09:32:08;100733.53;;;6.08;96.52
64551;BME280;74341;44.510;-123.270;2024-03-25T09:34:34;100727.94;;;6.10;95.80
64551;BME280;74341;44.510;-123.270;2024-03-25T09:37:00;100733.81;;;6.15;95.66
64551;BME280;74341;44.510;-123.270;2024-03-25T09:39:27;100719.06;;;6.18;95.80
64551;BME280;74341;44.510;-123.270;2024-03-25T09:41:55;100714.34;;;6.20;96.17
64551;BME280;74341;44.510;-123.270;2024-03-25T09:44:25;100709.47;;;6.23;95.97
64551;BME280;74341;44.510;-123.270;2024-03-25T09:46:52;100707.50;;;6.25;95.79
64551;BME280;74341;44.510;-123.270;2024-03-25T09:49:19;100704.78;;;6.25;96.38
64551;BME280;74341;44.510;-123.270;2024-03-25T09:51:46;100709.88;;;6.28;96.97
64551;BME280;74341;44.510;-123.270;2024-03-25T09:54:13;100706.19;;;6.30;96.93
64551;BME280;74341;44.510;-123.270;2024-03-25T09:56:39;100706.88;;;6.32;96.92
64551;BME280;74341;44.510;-123.270;2024-03-25T09:59:06;100716.56;;;6.34;99.10
64551;BME280;74341;44.510;-123.270;2024-03-25T10:01:32;100709.31;;;6.35;96.70
64551;BME280;74341;44.510;-123.270;2024-03-25T10:03:59;100707.28;;;6.37;96.54
64551;BME280;74341;44.510;-123.270;2024-03-25T10:06:25;100707.00;;;6.40;96.73
64551;BME280;74341;44.510;-123.270;2024-03-25T10:08:53;100700.69;;;6.39;96.38
64551;BME280;74341;44.510;-123.270;2024-03-25T10:11:23;100693.28;;;6.41;95.26
64551;BME280;74341;44.510;-123.270;2024-03-25T10:13:49;100695.81;;;6.43;94.95
64551;BME280;74341;44.510;-123.270;2024-03-25T10:16:15;100701.09;;;6.44;95.53
64551;BME280;74341;44.510;-123.270;2024-03-25T10:18:42;100698.25;;;6.46;95.53
64551;BME280;74341;44.510;-123.270;2024-03-25T10:21:10;100704.53;;;6.46;95.18
64551;BME280;74341;44.510;-123.270;2024-03-25T10:23:36;100699.81;;;6.49;95.76
64551;BME280;74341;44.510;-123.270;2024-03-25T10:26:07;100699.97;;;6.47;96.55
64551;BME280;74341;44.510;-123.270;2024-03-25T10:28:34;100685.69;;;6.45;96.60
64551;BME280;74341;44.510;-123.270;2024-03-25T10:31:04;100686.69;;;6.44;97.13
64551;BME280;74341;44.510;-123.270;2024-03-25T10:33:31;100681.25;;;6.44;96.98
64551;BME280;74341;44.510;-123.270;2024-03-25T10:35:58;100691.41;;;6.42;96.98
64551;BME280;74341;44.510;-123.270;2024-03-25T10:38:27;100676.09;;;6.41;97.28
64551;BME280;74341;44.510;-123.270;2024-03-25T10:40:55;100678.97;;;6.39;97.42
64551;BME280;74341;44.510;-123.270;2024-03-25T10:43:24;100669.13;;;6.38;97.48
64551;BME280;74341;44.510;-123.270;2024-03-25T10:45:55;100663.84;;;6.37;97.90
64551;BME280;74341;44.510;-123.270;2024-03-25T10:48:31;100664.84;;;6.36;98.44
64551;BME280;74341;44.510;-123.270;2024-03-25T10:51:01;100656.84;;;6.34;98.41
64551;BME280;74341;44.510;-123.270;2024-03-25T10:53:30;100663.44;;;6.32;99.42
64551;BME280;74341;44.510;-123.270;2024-03-25T10:55:58;100652.56;;;6.32;98.43
64551;BME280;74341;44.510;-123.270;2024-03-25T10:58:27;100653.75;;;6.29;98.78
64551;BME280;74341;44.510;-123.270;2024-03-25T11:00:54;100650.16;;;6.28;98.67
64551;BME280;74341;44.510;-123.270;2024-03-25T11:03:23;100646.59;;;6.28;98.88
64551;BME280;74341;44.510;-123.270;2024-03-25T11:05:49;100649.44;;;6.26;98.44
64551;BME280;74341;44.510;-123.270;2024-03-25T11:08:16;100645.91;;;6.26;99.65
64551;BME280;74341;44.510;-123.270;2024-03-25T11:10:44;100650.63;;;6.24;100.00
64551;BME280;74341;44.510;-123.270;2024-03-25T11:13:13;100646.88;;;6.25;100.00
64551;BME280;74341;44.510;-123.270;2024-03-25T11:15:44;100643.31;;;6.24;100.00
64551;BME280;74341;44.510;-123.270;2024-03-25T11:18:16;100636.91;;;6.25;100.00
64551;BME280;74341;44.510;-123.270;2024-03-25T11:20:43;100646.88;;;6.25;100.00
64551;BME280;74341;44.510;-123.270;2024-03-25T11:23:10;100639.75;;;6.24;100.00
64551;BME280;74341;44.510;-123.270;2024-03-25T11:25:38;100635.31;;;6.23;100.00
64551;BME280;74341;44.510;-123.270;2024-03-25T11:28:05;100630.03;;;6.21;100.00
64551;BME280;74341;44.510;-123.270;2024-03-25T11:30:32;100628.50;;;6.19;100.00
64551;BME280;74341;44.510;-123.270;2024-03-25T11:33:02;100623.22;;;6.17;99.60
64551;BME280;74341;44.510;-123.270;2024-03-25T11:35:37;100616.22;;;6.15;99.94
64551;BME280;74341;44.510;-123.270;2024-03-25T11:38:04;100627.25;;;6.13;99.85
64551;BME280;74341;44.510;-123.270;2024-03-25T11:40:30;100623.78;;;6.11;100.00
64551;BME280;74341;44.510;-123.270;2024-03-25T11:42:59;100623.09;;;6.09;99.79
64551;BME280;74341;44.510;-123.270;2024-03-25T11:45:25;100620.53;;;6.07;100.00
64551;BME280;74341;44.510;-123.270;2024-03-25T11:47:52;100617.97;;;6.06;99.81
64551;BME280;74341;44.510;-123.270;2024-03-25T11:50:19;100609.28;;;6.02;99.39
64551;BME280;74341;44.510;-123.270;2024-03-25T11:52:46;100612.00;;;6.02;99.37
64551;BME280;74341;44.510;-123.270;2024-03-25T11:55:17;100617.56;;;6.01;100.00
64551;BME280;74341;44.510;-123.270;2024-03-25T11:57:43;100618.69;;;5.98;100.00
64551;BME280;74341;44.510;-123.270;2024-03-25T12:00:10;100621.41;;;5.98;100.00
64551;BME280;74341;44.510;-123.270;2024-03-25T12:02:48;100615.16;;;5.98;100.00
64551;BME280;74341;44.510;-123.270;2024-03-25T12:05:14;100617.00;;;5.97;100.00
64551;BME280;74341;44.510;-123.270;2024-03-25T12:07:41;100609.88;;;5.96;100.00
64551;BME280;74341;44.510;-123.270;2024-03-25T12:10:07;100617.72;;;5.99;100.00
64551;BME280;74341;44.510;-123.270;2024-03-25T12:12:51;100612.28;;;5.99;100.00
64551;BME280;74341;44.510;-123.270;2024-03-25T12:15:18;100607.72;;;6.00;100.00
64551;BME280;74341;44.510;-123.270;2024-03-25T12:17:46;100597.69;;;6.00;100.00
64551;BME280;74341;44.510;-123.270;2024-03-25T12:20:13;100598.56;;;6.01;100.00
64551;BME280;74341;44.510;-123.270;2024-03-25T12:22:40;100593.00;;;6.02;100.00
64551;BME280;74341;44.510;-123.270;2024-03-25T12:25:07;100589.25;;;6.03;100.00
64551;BME280;74341;44.510;-123.270;2024-03-25T12:27:33;100586.53;;;6.03;100.00